sensor_id;sensor_type;location;lat;lon;timestamp;temperature;humidity
14409;DHT22;7289;50.706;4.992;2023-04-06T00:00:05;1.60;99.90
14409;DHT22;7289;50.706;4.992;2023-04-06T00:02:36;1.60;99.90
14409;DHT22;7289;50.706;4.992;2023-04-06T00:05:05;1.60;99.90
14409;DHT22;7289;50.706;4.992;2023-04-06T00:07:33;1.60;99.90
14409;DHT22;7289;50.706;4.992;2023-04-06T00:10:03;1.50;99.90
14409;DHT22;7289;50.706;4.992;2023-04-06T00:12:32;1.60;99.90
14409;DHT22;7289;50.706;4.992;2023-04-06T00:15:01;1.60;99.90
14409;DHT22;7289;50.706;4.992;2023-04-06T00:17:29;1.50;99.90
14409;DHT22;7289;50.706;4.992;2023-04-06T00:19:58;1.50;99.90
14409;DHT22;7289;50.706;4.992;2023-04-06T00:22:26;1.60;99.90
14409;DHT22;7289;50.706;4.992;2023-04-06T00:24:54;1.50;99.90
14409;DHT22;7289;50.706;4.992;2023-04-06T00:27:22;1.40;99.90
14409;DHT22;7289;50.706;4.992;2023-04-06T00:29:52;1.40;99.90
14409;DHT22;7289;50.706;4.992;2023-04-06T00:32:21;1.40;99.90
14409;DHT22;7289;50.706;4.992;2023-04-06T00:34:49;1.30;99.90
14409;DHT22;7289;50.706;4.992;2023-04-06T00:37:17;1.30;99.90
14409;DHT22;7289;50.706;4.992;2023-04-06T00:39:46;1.30;99.90
14409;DHT22;7289;50.706;4.992;2023-04-06T00:42:14;1.30;99.90
14409;DHT22;7289;50.706;4.992;2023-04-06T00:44:43;1.30;99.90
14409;DHT22;7289;50.706;4.992;2023-04-06T00:47:13;1.20;99.90
14409;DHT22;7289;50.706;4.992;2023-04-06T00:49:41;1.20;99.90
14409;DHT22;7289;50.706;4.992;2023-04-06T00:52:10;1.20;99.90
14409;DHT22;7289;50.706;4.992;2023-04-06T00:54:38;1.20;99.90
14409;DHT22;7289;50.706;4.992;2023-04-06T00:57:07;1.20;99.90
14409;DHT22;7289;50.706;4.992;2023-04-06T00:59:36;1.20;99.90
14409;DHT22;7289;50.706;4.992;2023-04-06T01:02:07;1.30;99.90
14409;DHT22;7289;50.706;4.992;2023-04-06T01:04:43;1.20;99.90
14409;DHT22;7289;50.706;4.992;2023-04-06T01:07:21;1.20;99.90
14409;DHT22;7289;50.706;4.992;2023-04-06T01:10:03;1.20;99.90
14409;DHT22;7289;50.706;4.992;2023-04-06T01:12:33;1.20;99.90
14409;DHT22;7289;50.706;4.992;2023-04-06T01:15:07;1.20;99.90
14409;DHT22;7289;50.706;4.992;2023-04-06T01:17:38;1.20;99.90
14409;DHT22;7289;50.706;4.992;2023-04-06T01:20:14;1.20;99.90
14409;DHT22;7289;50.706;4.992;2023-04-06T01:22:44;1.20;99.90
14409;DHT22;7289;50.706;4.992;2023-04-06T01:25:12;1.20;99.90
14409;DHT22;7289;50.706;4.992;2023-04-06T01:28:03;1.30;99.90
14409;DHT22;7289;50.706;4.992;2023-04-06T01:30:51;1.20;99.90
14409;DHT22;7289;50.706;4.992;2023-04-06T01:33:37;1.30;99.90
14409;DHT22;7289;50.706;4.992;2023-04-06T01:36:10;1.30;99.90
14409;DHT22;7289;50.706;4.992;2023-04-06T01:38:40;1.30;99.90
14409;DHT22;7289;50.706;4.992;2023-04-06T01:41:09;1.30;99.90
14409;DHT22;7289;50.706;4.992;2023-04-06T01:43:48;1.30;99.90
14409;DHT22;7289;50.706;4.992;2023-04-06T01:46:16;1.40;99.90
14409;DHT22;7289;50.706;4.992;2023-04-06T01:48:44;1.50;99.90
14409;DHT22;7289;50.706;4.992;2023-04-06T01:51:27;1.50;99.90
14409;DHT22;7289;50.706;4.992;2023-04-06T01:54:00;1.60;99.90
14409;DHT22;7289;50.706;4.992;2023-04-06T01:56:38;1.60;99.90
14409;DHT22;7289;50.706;4.992;2023-04-06T01:59:29;1.70;99.90
14409;DHT22;7289;50.706;4.992;2023-04-06T02:02:00;1.70;99.90
14409;DHT22;7289;50.706;4.992;2023-04-06T02:04:30;1.70;99.90
14409;DHT22;7289;50.706;4.992;2023-04-06T02:07:08;1.80;99.90
14409;DHT22;7289;50.706;4.992;2023-04-06T02:09:38;1.90;99.90
14409;DHT22;7289;50.706;4.992;2023-04-06T02:12:11;1.90;99.90
14409;DHT22;7289;50.706;4.992;2023-04-06T02:14:40;1.80;99.90
14409;DHT22;7289;50.706;4.992;2023-04-06T02:17:08;1.80;99.90
14409;DHT22;7289;50.706;4.992;2023-04-06T02:19:37;1.90;99.90
14409;DHT22;7289;50.706;4.992;2023-04-06T02:22:05;2.00;99.90
14409;DHT22;7289;50.706;4.992;2023-04-06T02:24:34;2.00;99.90
14409;DHT22;7289;50.706;4.992;2023-04-06T02:27:04;2.00;99.90
14409;DHT22;7289;50.706;4.992;2023-04-06T02:29:32;2.10;99.90
14409;DHT22;7289;50.706;4.992;2023-04-06T02:32:01;2.10;99.90
14409;DHT22;7289;50.706;4.992;2023-04-06T02:34:32;2.10;99.90
14409;DHT22;7289;50.706;4.992;2023-04-06T02:37:00;2.20;99.90
14409;DHT22;7289;50.706;4.992;2023-04-06T02:39:29;2.20;99.90
14409;DHT22;7289;50.706;4.992;2023-04-06T02:41:59;2.30;99.90
14409;DHT22;7289;50.706;4.992;2023-04-06T02:44:29;2.30;99.90
14409;DHT22;7289;50.706;4.992;2023-04-06T02:46:57;2.30;99.90
14409;DHT22;7289;50.706;4.992;2023-04-06T02:49:26;2.30;99.90
14409;DHT22;7289;50.706;4.992;2023-04-06T02:51:56;2.40;99.90
14409;DHT22;7289;50.706;4.992;2023-04-06T02:54:31;2.40;99.90
14409;DHT22;7289;50.706;4.992;2023-04-06T02:57:01;2.50;99.90
14409;DHT22;7289;50.706;4.992;2023-04-06T02:59:38;2.60;99.90
14409;DHT22;7289;50.706;4.992;2023-04-06T03:02:29;2.60;99.90
14409;DHT22;7289;50.706;4.992;2023-04-06T03:05:06;2.70;99.90
14409;DHT22;7289;50.706;4.992;2023-04-06T03:07:38;2.70;99.90
14409;DHT22;7289;50.706;4.992;2023-04-06T03:10:11;2.70;99.90
14409;DHT22;7289;50.706;4.992;2023-04-06T03:12:40;2.70;99.90
14409;DHT22;7289;50.706;4.992;2023-04-06T03:15:23;2.80;99.90
14409;DHT22;7289;50.706;4.992;2023-04-06T03:17:57;2.80;99.90
14409;DHT22;7289;50.706;4.992;2023-04-06T03:20:42;2.90;99.90
14409;DHT22;7289;50.706;4.992;2023-04-06T03:23:14;2.90;99.90
14409;DHT22;7289;50.706;4.992;2023-04-06T03:25:44;2.90;99.90
14409;DHT22;7289;50.706;4.992;2023-04-06T03:28:16;2.90;99.90
14409;DHT22;7289;50.706;4.992;2023-04-06T03:30:53;2.90;99.90
14409;DHT22;7289;50.706;4.992;2023-04-06T03:33:45;2.90;99.90
14409;DHT22;7289;50.706;4.992;2023-04-06T03:36:20;3.00;99.90
14409;DHT22;7289;50.706;4.992;2023-04-06T03:38:48;3.00;99.90
14409;DHT22;7289;50.706;4.992;2023-04-06T03:41:16;3.00;99.90
14409;DHT22;7289;50.706;4.992;2023-04-06T03:43:53;3.00;99.90
14409;DHT22;7289;50.706;4.992;2023-04-06T03:46:23;3.10;99.90
14409;DHT22;7289;50.706;4.992;2023-04-06T03:48:54;3.10;99.90
14409;DHT22;7289;50.706;4.992;2023-04-06T03:51:23;3.20;99.90
14409;DHT22;7289;50.706;4.992;2023-04-06T03:53:52;3.20;99.90
14409;DHT22;7289;50.706;4.992;2023-04-06T03:56:20;3.30;99.90
14409;DHT22;7289;50.706;4.992;2023-04-06T03:58:48;3.30;99.90
14409;DHT22;7289;50.706;4.992;2023-04-06T04:01:20;3.30;99.90
14409;DHT22;7289;50.706;4.992;2023-04-06T04:03:49;3.40;99.90
14409;DHT22;7289;50.706;4.992;2023-04-06T04:06:18;3.40;99.90
14409;DHT22;7289;50.706;4.992;2023-04-06T04:08:46;3.50;99.90
14409;DHT22;7289;50.706;4.992;2023-04-06T04:11:15;3.60;99.90
14409;DHT22;7289;50.706;4.992;2023-04-06T04:13:47;3.70;99.90
14409;DHT22;7289;50.706;4.992;2023-04-06T04:16:15;3.70;99.90
14409;DHT22;7289;50.706;4.992;2023-04-06T04:18:43;3.70;99.90
14409;DHT22;7289;50.706;4.992;2023-04-06T04:21:15;3.80;99.90
14409;DHT22;7289;50.706;4.992;2023-04-06T04:23:43;3.90;99.90
14409;DHT22;7289;50.706;4.992;2023-04-06T04:26:12;3.90;99.90
14409;DHT22;7289;50.706;4.992;2023-04-06T04:28:43;3.90;99.90
14409;DHT22;7289;50.706;4.992;2023-04-06T04:31:11;4.00;99.90
14409;DHT22;7289;50.706;4.992;2023-04-06T04:33:40;4.10;99.90
14409;DHT22;7289;50.706;4.992;2023-04-06T04:36:15;4.10;99.90
14409;DHT22;7289;50.706;4.992;2023-04-06T04:38:44;4.20;99.90
14409;DHT22;7289;50.706;4.992;2023-04-06T04:41:13;4.20;99.90
14409;DHT22;7289;50.706;4.992;2023-04-06T04:43:43;4.30;99.90
14409;DHT22;7289;50.706;4.992;2023-04-06T04:46:15;4.30;99.90
14409;DHT22;7289;50.706;4.992;2023-04-06T04:48:44;4.30;99.90
14409;DHT22;7289;50.706;4.992;2023-04-06T04:51:12;4.40;99.90
14409;DHT22;7289;50.706;4.992;2023-04-06T04:54:05;4.40;99.90
14409;DHT22;7289;50.706;4.992;2023-04-06T04:56:33;4.40;99.90
14409;DHT22;7289;50.706;4.992;2023-04-06T04:59:21;4.40;99.90
14409;DHT22;7289;50.706;4.992;2023-04-06T05:01:57;4.40;99.90
14409;DHT22;7289;50.706;4.992;2023-04-06T05:04:35;4.50;99.90
14409;DHT22;7289;50.706;4.992;2023-04-06T05:07:07;4.50;99.90
14409;DHT22;7289;50.706;4.992;2023-04-06T05:09:39;4.60;99.90
14409;DHT22;7289;50.706;4.992;2023-04-06T05:12:08;4.60;99.90
14409;DHT22;7289;50.706;4.992;2023-04-06T05:14:47;4.60;99.90
14409;DHT22;7289;50.706;4.992;2023-04-06T05:17:18;4.70;99.90
14409;DHT22;7289;50.706;4.992;2023-04-06T05:19:46;4.70;99.90
14409;DHT22;7289;50.706;4.992;2023-04-06T05:22:21;4.80;99.90
14409;DHT22;7289;50.706;4.992;2023-04-06T05:25:01;4.80;99.90
14409;DHT22;7289;50.706;4.992;2023-04-06T05:27:30;4.80;99.90
14409;DHT22;7289;50.706;4.992;2023-04-06T05:30:05;4.90;99.90
14409;DHT22;7289;50.706;4.992;2023-04-06T05:32:39;4.90;99.90
14409;DHT22;7289;50.706;4.992;2023-04-06T05:35:09;5.00;99.90
14409;DHT22;7289;50.706;4.992;2023-04-06T05:37:38;5.00;99.90
14409;DHT22;7289;50.706;4.992;2023-04-06T05:40:09;5.10;99.90
14409;DHT22;7289;50.706;4.992;2023-04-06T05:42:39;5.20;99.90
14409;DHT22;7289;50.706;4.992;2023-04-06T05:45:09;5.20;99.90
14409;DHT22;7289;50.706;4.992;2023-04-06T05:47:47;5.30;99.90
14409;DHT22;7289;50.706;4.992;2023-04-06T05:50:22;5.40;99.90
14409;DHT22;7289;50.706;4.992;2023-04-06T05:52:51;5.50;99.90
14409;DHT22;7289;50.706;4.992;2023-04-06T05:55:23;5.50;99.90
14409;DHT22;7289;50.706;4.992;2023-04-06T05:58:04;5.60;99.90
14409;DHT22;7289;50.706;4.992;2023-04-06T06:00:32;5.80;99.90
14409;DHT22;7289;50.706;4.992;2023-04-06T06:03:05;5.90;99.90
14409;DHT22;7289;50.706;4.992;2023-04-06T06:05:36;6.00;99.90
14409;DHT22;7289;50.706;4.992;2023-04-06T06:08:10;6.00;99.90
14409;DHT22;7289;50.706;4.992;2023-04-06T06:10:40;6.10;99.90
14409;DHT22;7289;50.706;4.992;2023-04-06T06:13:11;6.20;99.90
14409;DHT22;7289;50.706;4.992;2023-04-06T06:15:39;6.30;99.90
14409;DHT22;7289;50.706;4.992;2023-04-06T06:18:08;6.40;99.90
14409;DHT22;7289;50.706;4.992;2023-04-06T06:20:37;6.50;99.90
14409;DHT22;7289;50.706;4.992;2023-04-06T06:23:06;6.50;99.90
14409;DHT22;7289;50.706;4.992;2023-04-06T06:25:35;6.70;99.90
14409;DHT22;7289;50.706;4.992;2023-04-06T06:28:05;6.90;99.90
14409;DHT22;7289;50.706;4.992;2023-04-06T06:30:35;7.10;99.90
14409;DHT22;7289;50.706;4.992;2023-04-06T06:33:04;7.30;99.90
14409;DHT22;7289;50.706;4.992;2023-04-06T06:35:32;7.50;99.90
14409;DHT22;7289;50.706;4.992;2023-04-06T06:38:03;7.60;99.90
14409;DHT22;7289;50.706;4.992;2023-04-06T06:40:33;7.80;99.90
14409;DHT22;7289;50.706;4.992;2023-04-06T06:43:02;7.90;99.90
14409;DHT22;7289;50.706;4.992;2023-04-06T06:45:36;8.10;99.90
14409;DHT22;7289;50.706;4.992;2023-04-06T06:48:04;8.10;99.90
14409;DHT22;7289;50.706;4.992;2023-04-06T06:50:33;8.10;99.90
14409;DHT22;7289;50.706;4.992;2023-04-06T06:53:01;8.10;99.90
14409;DHT22;7289;50.706;4.992;2023-04-06T06:55:30;8.20;99.90
14409;DHT22;7289;50.706;4.992;2023-04-06T06:57:58;8.40;99.90
14409;DHT22;7289;50.706;4.992;2023-04-06T07:00:27;8.40;99.90
14409;DHT22;7289;50.706;4.992;2023-04-06T07:02:57;8.40;99.90
14409;DHT22;7289;50.706;4.992;2023-04-06T07:05:26;8.50;99.90
14409;DHT22;7289;50.706;4.992;2023-04-06T07:07:57;8.50;99.90
14409;DHT22;7289;50.706;4.992;2023-04-06T07:10:26;8.60;99.90
14409;DHT22;7289;50.706;4.992;2023-04-06T07:12:54;8.70;99.90
14409;DHT22;7289;50.706;4.992;2023-04-06T07:15:23;8.90;99.90
14409;DHT22;7289;50.706;4.992;2023-04-06T07:17:51;8.90;99.90
14409;DHT22;7289;50.706;4.992;2023-04-06T07:20:23;9.10;99.90
14409;DHT22;7289;50.706;4.992;2023-04-06T07:22:51;9.10;99.90
14409;DHT22;7289;50.706;4.992;2023-04-06T07:25:20;9.20;99.80
14409;DHT22;7289;50.706;4.992;2023-04-06T07:27:51;9.20;99.80
14409;DHT22;7289;50.706;4.992;2023-04-06T07:30:20;9.30;99.60
14409;DHT22;7289;50.706;4.992;2023-04-06T07:32:49;9.30;99.60
14409;DHT22;7289;50.706;4.992;2023-04-06T07:35:18;9.40;99.50
14409;DHT22;7289;50.706;4.992;2023-04-06T07:37:47;9.50;99.20
14409;DHT22;7289;50.706;4.992;2023-04-06T07:40:16;9.50;98.80
14409;DHT22;7289;50.706;4.992;2023-04-06T07:42:45;9.50;98.60
14409;DHT22;7289;50.706;4.992;2023-04-06T07:45:14;9.60;98.40
14409;DHT22;7289;50.706;4.992;2023-04-06T07:47:43;9.70;97.90
14409;DHT22;7289;50.706;4.992;2023-04-06T07:50:12;9.80;98.50
14409;DHT22;7289;50.706;4.992;2023-04-06T07:52:40;9.90;98.50
14409;DHT22;7289;50.706;4.992;2023-04-06T07:55:10;10.00;98.30
14409;DHT22;7289;50.706;4.992;2023-04-06T07:57:38;10.00;97.90
14409;DHT22;7289;50.706;4.992;2023-04-06T08:00:08;10.10;97.90
14409;DHT22;7289;50.706;4.992;2023-04-06T08:02:40;10.20;98.10
14409;DHT22;7289;50.706;4.992;2023-04-06T08:05:09;10.20;97.80
14409;DHT22;7289;50.706;4.992;2023-04-06T08:07:37;10.30;98.20
14409;DHT22;7289;50.706;4.992;2023-04-06T08:10:06;10.30;97.40
14409;DHT22;7289;50.706;4.992;2023-04-06T08:12:36;10.30;97.50
14409;DHT22;7289;50.706;4.992;2023-04-06T08:15:05;10.40;97.90
14409;DHT22;7289;50.706;4.992;2023-04-06T08:17:34;10.30;97.90
14409;DHT22;7289;50.706;4.992;2023-04-06T08:20:03;10.40;97.70
14409;DHT22;7289;50.706;4.992;2023-04-06T08:22:31;10.60;98.20
14409;DHT22;7289;50.706;4.992;2023-04-06T08:24:59;10.70;98.20
14409;DHT22;7289;50.706;4.992;2023-04-06T08:27:28;10.80;98.20
14409;DHT22;7289;50.706;4.992;2023-04-06T08:29:57;10.70;98.80
14409;DHT22;7289;50.706;4.992;2023-04-06T08:32:26;10.80;98.80
14409;DHT22;7289;50.706;4.992;2023-04-06T08:34:54;10.80;98.90
14409;DHT22;7289;50.706;4.992;2023-04-06T08:37:24;10.70;99.30
14409;DHT22;7289;50.706;4.992;2023-04-06T08:39:52;10.70;99.20
14409;DHT22;7289;50.706;4.992;2023-04-06T08:42:21;10.90;99.60
14409;DHT22;7289;50.706;4.992;2023-04-06T08:44:53;10.90;99.50
14409;DHT22;7289;50.706;4.992;2023-04-06T08:47:24;11.00;99.60
14409;DHT22;7289;50.706;4.992;2023-04-06T08:49:53;10.90;99.90
14409;DHT22;7289;50.706;4.992;2023-04-06T08:52:22;10.90;99.90
14409;DHT22;7289;50.706;4.992;2023-04-06T08:54:52;10.90;99.90
14409;DHT22;7289;50.706;4.992;2023-04-06T08:57:20;10.80;99.90
14409;DHT22;7289;50.706;4.992;2023-04-06T08:59:50;10.70;99.90
14409;DHT22;7289;50.706;4.992;2023-04-06T09:02:19;10.70;99.90
14409;DHT22;7289;50.706;4.992;2023-04-06T09:04:52;10.70;99.90
14409;DHT22;7289;50.706;4.992;2023-04-06T09:07:21;10.90;99.90
14409;DHT22;7289;50.706;4.992;2023-04-06T09:09:50;10.90;99.90
14409;DHT22;7289;50.706;4.992;2023-04-06T09:12:23;10.90;99.90
14409;DHT22;7289;50.706;4.992;2023-04-06T09:14:52;11.10;99.90
14409;DHT22;7289;50.706;4.992;2023-04-06T09:17:21;11.10;99.90
14409;DHT22;7289;50.706;4.992;2023-04-06T09:19:51;11.20;99.90
14409;DHT22;7289;50.706;4.992;2023-04-06T09:22:20;11.30;99.90
14409;DHT22;7289;50.706;4.992;2023-04-06T09:24:50;11.50;99.90
14409;DHT22;7289;50.706;4.992;2023-04-06T09:27:30;11.60;99.90
14409;DHT22;7289;50.706;4.992;2023-04-06T09:30:06;11.50;99.90
14409;DHT22;7289;50.706;4.992;2023-04-06T09:32:45;11.40;99.90
14409;DHT22;7289;50.706;4.992;2023-04-06T09:35:15;11.30;99.90
14409;DHT22;7289;50.706;4.992;2023-04-06T09:37:44;11.30;99.90
14409;DHT22;7289;50.706;4.992;2023-04-06T09:40:13;11.20;99.90
14409;DHT22;7289;50.706;4.992;2023-04-06T09:42:42;10.70;99.90
14409;DHT22;7289;50.706;4.992;2023-04-06T09:45:10;10.60;99.90
14409;DHT22;7289;50.706;4.992;2023-04-06T09:47:42;10.80;99.90
14409;DHT22;7289;50.706;4.992;2023-04-06T09:50:12;10.90;99.90
14409;DHT22;7289;50.706;4.992;2023-04-06T09:52:46;11.00;99.90
14409;DHT22;7289;50.706;4.992;2023-04-06T09:55:20;11.10;99.90
14409;DHT22;7289;50.706;4.992;2023-04-06T09:57:55;11.20;99.90
14409;DHT22;7289;50.706;4.992;2023-04-06T10:00:25;11.30;99.90
14409;DHT22;7289;50.706;4.992;2023-04-06T10:02:58;11.40;99.90
14409;DHT22;7289;50.706;4.992;2023-04-06T10:05:46;11.70;99.90
14409;DHT22;7289;50.706;4.992;2023-04-06T10:08:16;11.70;99.90
14409;DHT22;7289;50.706;4.992;2023-04-06T10:10:46;11.50;99.90
14409;DHT22;7289;50.706;4.992;2023-04-06T10:13:15;11.60;99.90
14409;DHT22;7289;50.706;4.992;2023-04-06T10:15:44;11.50;99.90
14409;DHT22;7289;50.706;4.992;2023-04-06T10:18:13;11.40;99.90
14409;DHT22;7289;50.706;4.992;2023-04-06T10:20:46;11.50;99.90
14409;DHT22;7289;50.706;4.992;2023-04-06T10:23:21;11.50;99.90
14409;DHT22;7289;50.706;4.992;2023-04-06T10:25:52;11.60;99.90
14409;DHT22;7289;50.706;4.992;2023-04-06T10:28:21;11.50;99.90
14409;DHT22;7289;50.706;4.992;2023-04-06T10:30:57;11.50;99.90
14409;DHT22;7289;50.706;4.992;2023-04-06T10:33:26;11.50;99.90
14409;DHT22;7289;50.706;4.992;2023-04-06T10:35:55;11.60;99.90
14409;DHT22;7289;50.706;4.992;2023-04-06T10:38:34;11.70;99.90
14409;DHT22;7289;50.706;4.992;2023-04-06T10:41:09;11.70;99.90
14409;DHT22;7289;50.706;4.992;2023-04-06T10:43:38;11.90;99.90
14409;DHT22;7289;50.706;4.992;2023-04-06T10:46:08;11.80;99.90
14409;DHT22;7289;50.706;4.992;2023-04-06T10:48:37;12.10;99.90
14409;DHT22;7289;50.706;4.992;2023-04-06T10:51:11;12.10;99.90
14409;DHT22;7289;50.706;4.992;2023-04-06T10:53:43;12.20;99.90
14409;DHT22;7289;50.706;4.992;2023-04-06T10:56:13;12.60;99.90
14409;DHT22;7289;50.706;4.992;2023-04-06T10:58:46;12.70;99.90
14409;DHT22;7289;50.706;4.992;2023-04-06T11:01:15;12.90;99.90
14409;DHT22;7289;50.706;4.992;2023-04-06T11:03:45;12.90;99.90
14409;DHT22;7289;50.706;4.992;2023-04-06T11:06:20;13.00;99.90
14409;DHT22;7289;50.706;4.992;2023-04-06T11:08:50;12.80;99.90
14409;DHT22;7289;50.706;4.992;2023-04-06T11:11:19;12.60;99.90
14409;DHT22;7289;50.706;4.992;2023-04-06T11:13:50;13.00;99.90
14409;DHT22;7289;50.706;4.992;2023-04-06T11:16:20;13.20;99.90
14409;DHT22;7289;50.706;4.992;2023-04-06T11:18:50;13.40;99.90
14409;DHT22;7289;50.706;4.992;2023-04-06T11:21:19;13.40;99.90
14409;DHT22;7289;50.706;4.992;2023-04-06T11:23:49;13.10;99.90
14409;DHT22;7289;50.706;4.992;2023-04-06T11:26:17;12.80;99.90
14409;DHT22;7289;50.706;4.992;2023-04-06T11:28:45;12.70;99.90
14409;DHT22;7289;50.706;4.992;2023-04-06T11:31:15;12.50;99.90
14409;DHT22;7289;50.706;4.992;2023-04-06T11:33:43;12.40;99.90
14409;DHT22;7289;50.706;4.992;2023-04-06T11:36:13;12.50;99.90
14409;DHT22;7289;50.706;4.992;2023-04-06T11:38:43;12.10;99.90
14409;DHT22;7289;50.706;4.992;2023-04-06T11:41:12;12.00;99.90
14409;DHT22;7289;50.706;4.992;2023-04-06T11:43:47;12.20;99.90
14409;DHT22;7289;50.706;4.992;2023-04-06T11:46:18;12.20;99.90
14409;DHT22;7289;50.706;4.992;2023-04-06T11:48:47;12.10;99.90
14409;DHT22;7289;50.706;4.992;2023-04-06T11:51:22;12.20;99.90
14409;DHT22;7289;50.706;4.992;2023-04-06T11:53:51;12.20;99.90
14409;DHT22;7289;50.706;4.992;2023-04-06T11:56:28;12.10;99.90
14409;DHT22;7289;50.706;4.992;2023-04-06T11:58:57;11.90;99.90
14409;DHT22;7289;50.706;4.992;2023-04-06T12:01:26;11.80;99.90
14409;DHT22;7289;50.706;4.992;2023-04-06T12:03:55;11.70;99.90
14409;DHT22;7289;50.706;4.992;2023-04-06T12:06:25;11.30;99.90
14409;DHT22;7289;50.706;4.992;2023-04-06T12:08:54;11.10;99.90
14409;DHT22;7289;50.706;4.992;2023-04-06T12:11:22;10.80;99.90
14409;DHT22;7289;50.706;4.992;2023-04-06T12:13:51;10.80;99.90
14409;DHT22;7289;50.706;4.992;2023-04-06T12:16:20;10.70;99.90
14409;DHT22;7289;50.706;4.992;2023-04-06T12:18:48;10.70;99.90
14409;DHT22;7289;50.706;4.992;2023-04-06T12:21:17;10.80;99.90
14409;DHT22;7289;50.706;4.992;2023-04-06T12:23:45;10.90;99.90
14409;DHT22;7289;50.706;4.992;2023-04-06T12:26:14;10.90;99.90
14409;DHT22;7289;50.706;4.992;2023-04-06T12:28:42;10.90;99.90
14409;DHT22;7289;50.706;4.992;2023-04-06T12:31:16;11.00;99.90
14409;DHT22;7289;50.706;4.992;2023-04-06T12:33:47;11.00;99.90
14409;DHT22;7289;50.706;4.992;2023-04-06T12:36:16;11.20;99.90
14409;DHT22;7289;50.706;4.992;2023-04-06T12:38:47;11.20;99.90
14409;DHT22;7289;50.706;4.992;2023-04-06T12:41:15;11.20;99.90
14409;DHT22;7289;50.706;4.992;2023-04-06T12:43:44;11.50;99.90
14409;DHT22;7289;50.706;4.992;2023-04-06T12:46:13;11.60;99.90
14409;DHT22;7289;50.706;4.992;2023-04-06T12:48:43;11.90;99.90
14409;DHT22;7289;50.706;4.992;2023-04-06T12:51:11;12.00;99.90
14409;DHT22;7289;50.706;4.992;2023-04-06T12:53:39;12.00;99.90
14409;DHT22;7289;50.706;4.992;2023-04-06T12:56:12;12.00;99.90
14409;DHT22;7289;50.706;4.992;2023-04-06T12:58:41;12.10;99.90
14409;DHT22;7289;50.706;4.992;2023-04-06T13:01:10;12.30;99.90
14409;DHT22;7289;50.706;4.992;2023-04-06T13:03:40;12.50;99.90
14409;DHT22;7289;50.706;4.992;2023-04-06T13:06:10;12.50;99.90
14409;DHT22;7289;50.706;4.992;2023-04-06T13:08:40;12.70;99.90
14409;DHT22;7289;50.706;4.992;2023-04-06T13:11:08;12.60;99.90
14409;DHT22;7289;50.706;4.992;2023-04-06T13:13:37;12.60;99.90
14409;DHT22;7289;50.706;4.992;2023-04-06T13:16:07;12.60;99.90
14409;DHT22;7289;50.706;4.992;2023-04-06T13:18:36;12.60;99.90
14409;DHT22;7289;50.706;4.992;2023-04-06T13:21:06;12.60;99.90
14409;DHT22;7289;50.706;4.992;2023-04-06T13:23:35;12.40;99.90
14409;DHT22;7289;50.706;4.992;2023-04-06T13:26:05;12.60;99.90
14409;DHT22;7289;50.706;4.992;2023-04-06T13:28:35;12.40;99.90
14409;DHT22;7289;50.706;4.992;2023-04-06T13:31:05;12.40;99.90
14409;DHT22;7289;50.706;4.992;2023-04-06T13:33:33;12.50;99.90
14409;DHT22;7289;50.706;4.992;2023-04-06T13:36:02;12.60;99.90
14409;DHT22;7289;50.706;4.992;2023-04-06T13:38:31;12.60;99.90
14409;DHT22;7289;50.706;4.992;2023-04-06T13:41:01;12.50;99.90
14409;DHT22;7289;50.706;4.992;2023-04-06T13:43:30;12.50;99.90
14409;DHT22;7289;50.706;4.992;2023-04-06T13:45:58;12.50;99.90
14409;DHT22;7289;50.706;4.992;2023-04-06T13:48:28;12.40;99.90
14409;DHT22;7289;50.706;4.992;2023-04-06T13:50:57;12.10;99.90
14409;DHT22;7289;50.706;4.992;2023-04-06T13:53:25;11.90;99.90
14409;DHT22;7289;50.706;4.992;2023-04-06T13:55:54;11.60;99.90
14409;DHT22;7289;50.706;4.992;2023-04-06T13:58:24;11.50;99.90
14409;DHT22;7289;50.706;4.992;2023-04-06T14:00:52;11.40;99.90
14409;DHT22;7289;50.706;4.992;2023-04-06T14:03:22;11.50;99.90
14409;DHT22;7289;50.706;4.992;2023-04-06T14:05:51;11.30;99.90
14409;DHT22;7289;50.706;4.992;2023-04-06T14:08:19;11.20;99.90
14409;DHT22;7289;50.706;4.992;2023-04-06T14:10:47;11.10;99.90
14409;DHT22;7289;50.706;4.992;2023-04-06T14:13:16;11.00;99.90
14409;DHT22;7289;50.706;4.992;2023-04-06T14:15:47;11.00;99.90
14409;DHT22;7289;50.706;4.992;2023-04-06T14:18:20;11.00;99.90
14409;DHT22;7289;50.706;4.992;2023-04-06T14:20:54;11.00;99.90
14409;DHT22;7289;50.706;4.992;2023-04-06T14:23:23;11.10;99.90
14409;DHT22;7289;50.706;4.992;2023-04-06T14:26:00;11.10;99.90
14409;DHT22;7289;50.706;4.992;2023-04-06T14:28:30;11.10;99.90
14409;DHT22;7289;50.706;4.992;2023-04-06T14:31:00;11.30;99.90
14409;DHT22;7289;50.706;4.992;2023-04-06T14:33:30;11.20;99.90
14409;DHT22;7289;50.706;4.992;2023-04-06T14:35:58;11.30;99.90
14409;DHT22;7289;50.706;4.992;2023-04-06T14:38:26;11.40;99.90
14409;DHT22;7289;50.706;4.992;2023-04-06T14:40:54;11.30;99.90
14409;DHT22;7289;50.706;4.992;2023-04-06T14:43:23;11.30;99.90
14409;DHT22;7289;50.706;4.992;2023-04-06T14:45:52;11.40;99.90
14409;DHT22;7289;50.706;4.992;2023-04-06T14:48:22;11.50;99.90
14409;DHT22;7289;50.706;4.992;2023-04-06T14:50:53;11.50;99.90
14409;DHT22;7289;50.706;4.992;2023-04-06T14:53:22;11.40;99.90
14409;DHT22;7289;50.706;4.992;2023-04-06T14:55:51;11.30;99.90
14409;DHT22;7289;50.706;4.992;2023-04-06T14:58:19;11.30;99.90
14409;DHT22;7289;50.706;4.992;2023-04-06T15:00:48;11.60;99.90
14409;DHT22;7289;50.706;4.992;2023-04-06T15:03:17;11.50;99.90
14409;DHT22;7289;50.706;4.992;2023-04-06T15:05:47;11.40;99.90
14409;DHT22;7289;50.706;4.992;2023-04-06T15:08:15;11.50;99.90
14409;DHT22;7289;50.706;4.992;2023-04-06T15:10:44;11.60;99.90
14409;DHT22;7289;50.706;4.992;2023-04-06T15:13:12;11.40;99.90
14409;DHT22;7289;50.706;4.992;2023-04-06T15:15:40;11.30;99.90
14409;DHT22;7289;50.706;4.992;2023-04-06T15:18:09;11.40;99.90
14409;DHT22;7289;50.706;4.992;2023-04-06T15:20:37;11.30;99.90
14409;DHT22;7289;50.706;4.992;2023-04-06T15:23:08;11.30;99.90
14409;DHT22;7289;50.706;4.992;2023-04-06T15:25:36;11.40;99.90
14409;DHT22;7289;50.706;4.992;2023-04-06T15:28:08;11.30;99.90
14409;DHT22;7289;50.706;4.992;2023-04-06T15:30:36;11.50;99.90
14409;DHT22;7289;50.706;4.992;2023-04-06T15:33:07;11.40;99.90
14409;DHT22;7289;50.706;4.992;2023-04-06T15:35:35;11.40;99.90
14409;DHT22;7289;50.706;4.992;2023-04-06T15:38:08;11.40;99.90
14409;DHT22;7289;50.706;4.992;2023-04-06T15:40:42;11.50;99.90
14409;DHT22;7289;50.706;4.992;2023-04-06T15:43:11;11.70;99.90
14409;DHT22;7289;50.706;4.992;2023-04-06T15:45:40;11.70;99.90
14409;DHT22;7289;50.706;4.992;2023-04-06T15:48:08;11.60;99.90
14409;DHT22;7289;50.706;4.992;2023-04-06T15:50:37;11.80;99.90
14409;DHT22;7289;50.706;4.992;2023-04-06T15:53:05;11.90;99.90
14409;DHT22;7289;50.706;4.992;2023-04-06T15:55:34;12.00;99.90
14409;DHT22;7289;50.706;4.992;2023-04-06T15:58:03;12.00;99.90
14409;DHT22;7289;50.706;4.992;2023-04-06T16:00:33;12.20;99.90
14409;DHT22;7289;50.706;4.992;2023-04-06T16:03:01;12.40;99.90
14409;DHT22;7289;50.706;4.992;2023-04-06T16:05:29;12.60;99.90
14409;DHT22;7289;50.706;4.992;2023-04-06T16:08:00;12.70;99.90
14409;DHT22;7289;50.706;4.992;2023-04-06T16:10:29;12.70;99.90
14409;DHT22;7289;50.706;4.992;2023-04-06T16:13:00;12.60;99.90
14409;DHT22;7289;50.706;4.992;2023-04-06T16:15:28;12.80;99.90